Terminal Aerodrome Forecast
Issued by NWS Memphis, TN

Home | Current Version | Previous Version | Text Only | Print | Product List | Glossary On
Versions: 1 2 3 4 5 6 7 8 9 10 11 12 13 14 15 16 17 18
690
FTUS44 KMEG 201730
TAFJBR
TAF
KJBR 201730Z 2018/2118 19011G17KT P6SM SCT015 OVC030
      TEMPO 2018/2020 BKN015
     FM202100 20012G18KT P6SM SCT030 OVC250
     FM210000 20007KT P6SM SCT200
      TEMPO 2111/2115 2SM -DZ BR BKN003
     FM211500 19011KT P6SM VCSH BKN005 OVC040=

USA.gov is the U.S. government's official web portal to all federal, state and local government web resources and services.